Eagle Lake, Illinois
Current Conditions -  °F | °C
As of 3:55 PM on Thursday 27 Nov 2014 (Local Time) from KIGQ Reporting Station
Overcast Overcast  
Wind Chill: 19°   Ceiling: 2800
Heat Index: 25°   Visibility: 10mi
Dew Point: 15°   Wind: 5mph
Humidity: 65%   Direction: 320°NW
Pressure: 30.38"   Gusts: NA
Location:  41.3435°N, 87.6008°W
Report Text: KIGQ 272155Z AUTO 32004KT 10SM OVC028 M04/M10 A3038 RMK AO2 T10381096
Loading
Personal Weather Stations






























Interactive Weather Map New forecast layout! Learn more

10-Day Weather Forecast

Advertisements
Track Severe Weather on mobile